Time;durP1;ratioP1;P1;durP2;ratioP2;P2;SDS_P1;SDS_P2;PMS_P1;PMS_P2;Temp;Humidity;BMP_temperature;BMP_pressure;BME280_temperature;BME280_humidity;BME280_pressure;Samples;Min_cycle;Max_cycle;Signal;HPM_P1;HPM_P2
2022/10/07 00:09:14;;;;;;;1999.90;999.90;;;9.10;99.90;;;;;;6680105;88;20168;-79
2022/10/07 00:19:15;;;;;;;1999.90;999.90;;;9.00;99.90;;;;;;6680232;88;20185;-79
2022/10/07 00:29:15;;;;;;;1999.90;999.90;;;8.90;99.90;;;;;;6679451;88;20914;-79
2022/10/07 00:39:17;;;;;;;1999.90;999.90;;;8.80;99.90;;;;;;6679097;88;20806;-79
2022/10/07 00:49:18;;;;;;;1999.90;999.90;;;8.50;99.90;;;;;;6662407;88;20173;-80
2022/10/07 00:59:20;;;;;;;1999.90;999.90;;;8.40;99.90;;;;;;6660269;89;20207;-79
2022/10/07 01:09:20;;;;;;;1999.90;999.90;;;8.40;99.90;;;;;;6661786;88;20169;-79
2022/10/07 01:19:39;;;;;;;1999.90;999.90;;;8.60;99.90;;;;;;6662693;88;20259;-79
2022/10/07 01:29:54;;;;;;;1999.90;999.90;;;8.40;99.90;;;;;;6662240;88;20164;-78
2022/10/07 01:40:00;;;;;;;1999.90;999.90;;;8.30;99.90;;;;;;6662114;88;20180;-79
2022/10/07 01:50:01;;;;;;;1999.90;999.90;;;8.20;99.90;;;;;;6628548;88;20206;-78
2022/10/07 02:00:09;;;;;;;1999.90;999.90;;;8.20;99.90;;;;;;6625689;88;20247;-80
2022/10/07 02:10:12;;;;;;;1999.90;999.90;;;8.30;99.90;;;;;;6644757;88;20249;-79
2022/10/07 02:20:16;;;;;;;1999.90;999.90;;;8.30;99.90;;;;;;6664696;88;20173;-79
2022/10/07 02:30:18;;;;;;;1999.90;999.90;;;8.20;99.90;;;;;;6664512;88;20248;-80
2022/10/07 02:40:22;;;;;;;1999.90;999.90;;;8.20;99.90;;;;;;6677226;88;20141;-79
2022/10/07 02:50:26;;;;;;;1999.90;999.90;;;8.10;99.90;;;;;;6680929;88;20203;-78
2022/10/07 03:00:30;;;;;;;1999.90;999.90;;;8.00;99.90;;;;;;6680526;88;20223;-78
2022/10/07 03:10:31;;;;;;;1999.90;999.90;;;8.00;99.90;;;;;;6663965;88;20757;-80
2022/10/07 03:30:35;;;;;;;1999.90;999.90;;;7.80;99.90;;;;;;6681182;88;20229;-79
2022/10/07 03:40:39;;;;;;;1999.90;999.90;;;7.80;99.90;;;;;;6663926;88;20193;-79
2022/10/07 03:50:40;;;;;;;1999.90;999.90;;;7.90;99.90;;;;;;6664373;88;20285;-79
2022/10/07 04:00:41;;;;;;;1999.90;999.90;;;7.80;99.90;;;;;;6663430;88;20161;-78
2022/10/07 04:10:41;;;;;;;1999.90;999.90;;;7.80;99.90;;;;;;6662931;88;20771;-78
2022/10/07 04:20:42;;;;;;;1999.90;999.90;;;7.70;99.90;;;;;;6663036;88;20198;-79
2022/10/07 04:30:43;;;;;;;1999.90;999.90;;;7.70;99.90;;;;;;6662880;88;20193;-79
2022/10/07 04:40:47;;;;;;;1999.90;999.90;;;7.50;99.90;;;;;;6662756;88;20964;-78
2022/10/07 04:50:50;;;;;;;1999.90;999.90;;;7.40;99.90;;;;;;6663033;88;20252;-78
2022/10/07 05:00:52;;;;;;;1999.90;999.90;;;7.40;99.90;;;;;;6665899;88;20330;-79
2022/10/07 05:10:55;;;;;;;1999.90;999.90;;;7.30;99.90;;;;;;6662159;88;20173;-79
2022/10/07 05:20:55;;;;;;;1999.90;999.90;;;7.30;99.90;;;;;;6666291;88;20218;-80
2022/10/07 05:31:04;;;;;;;1999.90;999.90;;;7.20;99.90;;;;;;6675801;88;20152;-80
2022/10/07 05:41:06;;;;;;;1999.90;999.90;;;7.20;99.90;;;;;;6662637;88;20219;-83
2022/10/07 05:51:07;;;;;;;1999.90;999.90;;;7.10;99.90;;;;;;6660670;88;20765;-81
2022/10/07 06:01:14;;;;;;;1999.90;999.90;;;7.10;99.90;;;;;;6661051;88;20200;-81
2022/10/07 06:21:34;;;;;;;1999.90;999.90;;;7.00;99.90;;;;;;6655460;89;20065;-81
2022/10/07 06:31:35;;;;;;;1999.90;999.90;;;7.00;99.90;;;;;;6656874;89;20209;-81
2022/10/07 06:41:37;;;;;;;1999.90;999.90;;;7.10;99.90;;;;;;6655570;89;20246;-79
2022/10/07 06:51:38;;;;;;;1999.90;999.90;;;7.30;99.90;;;;;;6650341;89;20293;-80
2022/10/07 07:01:38;;;;;;;1999.90;999.90;;;7.50;99.90;;;;;;6646319;89;20184;-79
2022/10/07 07:11:42;;;;;;;1999.90;999.90;;;7.70;99.90;;;;;;6645218;89;20196;-79
2022/10/07 07:21:42;;;;;;;1999.90;999.90;;;7.90;99.90;;;;;;6645433;89;20188;-79
2022/10/07 07:31:43;;;;;;;1999.90;999.90;;;8.40;99.90;;;;;;6646150;89;20212;-80
2022/10/07 07:41:46;;;;;;;1999.90;999.90;;;8.70;99.90;;;;;;6646561;89;22922;-80
2022/10/07 07:51:47;;;;;;;1999.90;999.90;;;9.70;99.90;;;;;;6660509;89;20212;-80
2022/10/07 08:01:48;;;;;;;1999.90;999.90;;;11.00;99.90;;;;;;6658950;89;20237;-81
2022/10/07 08:11:49;;;;;;;1999.90;999.90;;;11.50;99.90;;;;;;6661991;89;20183;-81
2022/10/07 08:21:51;;;;;;;1999.90;999.90;;;12.20;99.90;;;;;;6661523;88;20184;-80
2022/10/07 08:31:51;;;;;;;1999.90;999.90;;;12.50;99.90;;;;;;6668635;89;20206;-80
2022/10/07 08:42:00;;;;;;;1999.90;999.90;;;12.40;99.90;;;;;;6664540;89;20656;-80
2022/10/07 08:52:24;;;;;;;1999.90;999.90;;;13.00;99.90;;;;;;6645591;89;20193;-81
2022/10/07 09:02:47;;;;;;;1999.90;999.90;;;13.60;99.90;;;;;;6650898;89;20887;-81
2022/10/07 09:12:56;;;;;;;1999.90;999.90;;;14.00;99.90;;;;;;6654367;89;20205;-81
2022/10/07 09:22:59;;;;;;;1999.90;999.90;;;14.50;99.90;;;;;;6651275;89;20198;-81
2022/10/07 09:33:01;;;;;;;1999.90;999.90;;;14.90;99.90;;;;;;6650588;89;20646;-81
2022/10/07 09:43:12;;;;;;;1999.90;999.90;;;15.90;99.90;;;;;;6649472;89;20252;-81
2022/10/07 09:53:26;;;;;;;1999.90;999.90;;;16.70;99.90;;;;;;6647944;89;20829;-82
2022/10/07 10:03:32;;;;;;;1999.90;999.90;;;17.90;99.90;;;;;;6658508;89;20184;-82
2022/10/07 10:13:35;;;;;;;1999.90;999.90;;;18.10;99.90;;;;;;6652523;89;20165;-81
2022/10/07 10:23:38;;;;;;;1999.90;999.90;;;18.90;99.90;;;;;;6658522;89;20232;-81
2022/10/07 10:33:57;;;;;;;1999.90;999.90;;;18.80;99.90;;;;;;6652395;89;20734;-81
2022/10/07 10:43:57;;;;;;;1999.90;999.90;;;20.60;99.90;;;;;;6651182;89;20193;-81
2022/10/07 10:54:27;;;;;;;1999.90;999.90;;;22.60;99.90;;;;;;6650193;89;20620;-83
2022/10/07 11:04:48;;;;;;;1999.90;999.90;;;22.80;99.90;;;;;;6652134;89;20259;-81
2022/10/07 11:14:55;;;;;;;1999.90;999.90;;;23.50;99.70;;;;;;6650222;89;20364;-81
2022/10/07 11:25:02;;;;;;;1999.90;999.90;;;25.60;97.40;;;;;;6650607;89;20927;-81
2022/10/07 11:35:16;;;;;;;1999.90;999.90;;;23.00;98.10;;;;;;6652463;89;20460;-81
2022/10/07 11:45:22;;;;;;;1999.90;999.90;;;22.90;99.00;;;;;;6653204;89;20243;-81
2022/10/07 11:55:42;;;;;;;1999.90;999.90;;;26.30;96.60;;;;;;6654546;89;20176;-81
2022/10/07 12:05:48;;;;;;;1999.90;999.90;;;26.20;95.50;;;;;;6652796;89;20169;-82
2022/10/07 12:15:50;;;;;;;1999.90;999.90;;;27.10;94.20;;;;;;6667641;89;20199;-81
2022/10/07 12:25:57;;;;;;;1999.90;999.90;;;23.90;95.60;;;;;;6666327;89;20208;-82
2022/10/07 12:36:20;;;;;;;1999.90;999.90;;;23.40;95.70;;;;;;6669719;88;20184;-83
2022/10/07 12:46:23;;;;;;;1999.90;999.90;;;23.70;95.40;;;;;;6672678;88;20181;-82
2022/10/07 12:56:27;;;;;;;1999.90;999.90;;;24.50;94.80;;;;;;6667925;89;20184;-83
2022/10/07 13:07:04;;;;;;;1999.90;999.90;;;22.50;96.00;;;;;;6665260;89;20214;-82
2022/10/07 13:17:27;;;;;;;1999.90;999.90;;;23.90;94.80;;;;;;6658944;89;20204;-81
2022/10/07 13:27:31;;;;;;;1999.90;999.90;;;25.00;93.60;;;;;;6656371;89;20204;-81
2022/10/07 13:37:34;;;;;;;1999.90;999.90;;;23.10;94.40;;;;;;6648355;89;20207;-82
2022/10/07 13:47:35;;;;;;;1999.90;999.90;;;23.80;95.90;;;;;;6653300;89;20219;-82
2022/10/07 13:57:42;;;;;;;1999.90;999.90;;;23.20;95.80;;;;;;6658874;89;20184;-80
2022/10/07 14:07:43;;;;;;;1999.90;999.90;;;23.60;95.80;;;;;;6651493;88;20290;-81
2022/10/07 14:17:46;;;;;;;1999.90;999.90;;;23.00;96.60;;;;;;6651016;89;20218;-81
2022/10/07 14:27:52;;;;;;;1999.90;999.90;;;23.10;96.10;;;;;;6648795;89;20225;-83
2022/10/07 14:38:26;;;;;;;1999.90;999.90;;;21.80;97.70;;;;;;6650969;89;20299;-81
2022/10/07 14:48:26;;;;;;;1999.90;999.90;;;21.30;98.20;;;;;;6647050;89;20331;-80
2022/10/07 14:58:28;;;;;;;1999.90;999.90;;;20.60;99.20;;;;;;6643870;89;20815;-82
2022/10/07 15:08:30;;;;;;;1999.90;999.90;;;21.10;99.40;;;;;;6653593;89;20215;-82
2022/10/07 15:18:31;;;;;;;1999.90;999.90;;;20.40;99.80;;;;;;6651178;89;20239;-82
2022/10/07 15:28:32;;;;;;;1999.90;999.90;;;20.40;99.90;;;;;;6656752;89;20265;-82
2022/10/07 15:38:32;;;;;;;1999.90;999.90;;;20.50;99.90;;;;;;6657726;89;20617;-82
2022/10/07 15:48:33;;;;;;;1999.90;999.90;;;20.40;99.90;;;;;;6656003;89;20205;-81
2022/10/07 15:58:34;;;;;;;1999.90;999.90;;;20.30;99.90;;;;;;6654752;89;20204;-81
2022/10/07 16:08:35;;;;;;;1999.90;999.90;;;19.90;99.90;;;;;;6647310;89;20275;-82
2022/10/07 16:18:38;;;;;;;1999.90;999.90;;;19.60;99.90;;;;;;6654016;89;20217;-82
2022/10/07 16:39:13;;;;;;;1999.90;999.90;;;18.90;99.90;;;;;;6663725;89;21100;-82
2022/10/07 16:49:16;;;;;;;1999.90;999.90;;;18.20;99.90;;;;;;6655552;89;20206;-82
2022/10/07 16:59:20;;;;;;;1999.90;999.90;;;17.80;99.90;;;;;;6652102;89;20236;-81
2022/10/07 17:09:23;;;;;;;1999.90;999.90;;;17.20;99.90;;;;;;6650253;89;20322;-79
2022/10/07 17:19:26;;;;;;;1999.90;999.90;;;16.70;99.90;;;;;;6653206;88;20207;-80
2022/10/07 17:29:28;;;;;;;1999.90;999.90;;;16.40;99.90;;;;;;6651327;89;20327;-79
2022/10/07 17:39:30;;;;;;;1999.90;999.90;;;16.30;99.90;;;;;;6665039;88;20297;-80
2022/10/07 17:49:30;;;;;;;1999.90;999.90;;;16.20;99.90;;;;;;6669976;88;20270;-80
2022/10/07 17:59:31;;;;;;;1999.90;999.90;;;16.00;99.90;;;;;;6674084;88;20422;-82
2022/10/07 18:09:31;;;;;;;1999.90;999.90;;;15.70;99.90;;;;;;6669761;88;20178;-82
2022/10/07 18:19:32;;;;;;;1999.90;999.90;;;15.50;99.90;;;;;;6649239;89;20213;-80
2022/10/07 18:29:37;;;;;;;1999.90;999.90;;;15.50;99.90;;;;;;6659001;88;20211;-80
2022/10/07 18:39:38;;;;;;;1999.90;999.90;;;15.40;99.90;;;;;;6663827;88;20707;-81
2022/10/07 18:49:39;;;;;;;1999.90;999.90;;;15.30;99.90;;;;;;6657911;89;20184;-80
2022/10/07 18:59:40;;;;;;;1999.90;999.90;;;15.20;99.90;;;;;;6656444;89;20193;-83
2022/10/07 19:09:40;;;;;;;1999.90;999.90;;;15.00;99.90;;;;;;6654623;89;20191;-81
2022/10/07 19:19:41;;;;;;;1999.90;999.90;;;14.90;99.90;;;;;;6656787;89;20731;-82
2022/10/07 19:29:41;;;;;;;1999.90;999.90;;;14.80;99.90;;;;;;6653891;89;20202;-83
2022/10/07 19:39:42;;;;;;;1999.90;999.90;;;14.60;99.90;;;;;;6658572;88;20194;-80
2022/10/07 19:49:42;;;;;;;1999.90;999.90;;;14.50;99.90;;;;;;6648553;89;20193;-79
2022/10/07 19:59:43;;;;;;;1999.90;999.90;;;14.30;99.90;;;;;;6649452;89;20204;-81
2022/10/07 20:09:43;;;;;;;1999.90;999.90;;;14.10;99.90;;;;;;6644160;89;20202;-81
2022/10/07 20:19:44;;;;;;;1999.90;999.90;;;14.00;99.90;;;;;;6644828;89;20220;-82
2022/10/07 20:29:56;;;;;;;1999.90;999.90;;;13.70;99.90;;;;;;6645206;89;20192;-82
2022/10/07 20:50:16;;;;;;;1999.90;999.90;;;13.40;99.90;;;;;;6645904;89;20192;-80
2022/10/07 21:00:17;;;;;;;1999.90;999.90;;;13.30;99.90;;;;;;6662102;89;20226;-80
2022/10/07 21:10:18;;;;;;;1999.90;999.90;;;13.20;99.90;;;;;;6669995;88;20298;-81
2022/10/07 21:20:19;;;;;;;1999.90;999.90;;;12.90;99.90;;;;;;6657909;89;20269;-80
2022/10/07 21:31:01;;;;;;;1999.90;999.90;;;12.70;99.90;;;;;;6677017;77;20259;-79
2022/10/07 21:41:20;;;;;;;1999.90;999.90;;;12.50;99.90;;;;;;6711094;88;20219;-79
2022/10/07 21:51:21;;;;;;;1999.90;999.90;;;12.10;99.90;;;;;;6705856;88;20215;-79
2022/10/07 22:01:23;;;;;;;1999.90;999.90;;;12.00;99.90;;;;;;6723260;88;20185;-79
2022/10/07 22:11:24;;;;;;;1999.90;999.90;;;12.00;99.90;;;;;;6720045;88;21059;-79
2022/10/07 22:21:27;;;;;;;1999.90;999.90;;;11.50;99.90;;;;;;6725154;88;20211;-79
2022/10/07 22:31:29;;;;;;;1999.90;999.90;;;11.30;99.90;;;;;;6726621;88;20206;-78
2022/10/07 22:41:29;;;;;;;1999.90;999.90;;;11.30;99.90;;;;;;6729411;88;20184;-79
2022/10/07 22:51:30;;;;;;;1999.90;999.90;;;11.10;99.90;;;;;;6731211;88;20206;-79
2022/10/07 23:01:30;;;;;;;1999.90;999.90;;;11.00;99.90;;;;;;6729389;88;21283;-80
2022/10/07 23:11:31;;;;;;;1999.90;999.90;;;10.80;99.90;;;;;;6740885;88;20173;-80
2022/10/07 23:21:33;;;;;;;1999.90;999.90;;;10.70;99.90;;;;;;6735131;88;20490;-79
2022/10/07 23:31:34;;;;;;;1999.90;999.90;;;10.60;99.90;;;;;;6734787;88;20221;-79
2022/10/07 23:41:34;;;;;;;1999.90;999.90;;;10.50;99.90;;;;;;6727128;88;20192;-78
2022/10/07 23:51:35;;;;;;;1999.90;999.90;;;10.50;99.90;;;;;;6722942;88;20691;-78
